createdAt,value
2023-01-02T00:02:17.798Z,97681.03
2023-01-02T00:04:44.523Z,97685.69
2023-01-02T00:07:11.277Z,97690.78
2023-01-02T00:09:39.596Z,97692.28
2023-01-02T00:12:06.516Z,97677.59
2023-01-02T00:14:33.333Z,97683.66
2023-01-02T00:16:59.958Z,97691.00
2023-01-02T00:19:26.650Z,97667.28
2023-01-02T00:21:53.365Z,97671.84
2023-01-02T00:24:20.098Z,97652.47
2023-01-02T00:26:48.464Z,97652.00
2023-01-02T00:29:15.450Z,97648.69
2023-01-02T00:31:42.312Z,97644.44
2023-01-02T00:34:09.140Z,97660.50
2023-01-02T00:36:35.827Z,97665.13
2023-01-02T00:39:02.492Z,97656.69
2023-01-02T00:41:29.196Z,97644.94
2023-01-02T00:43:57.301Z,97646.09
2023-01-02T00:46:24.194Z,97643.59
2023-01-02T00:48:50.925Z,97637.16
2023-01-02T00:51:17.686Z,97643.09
2023-01-02T00:53:44.300Z,97633.94
2023-01-02T00:56:11.015Z,97627.78
2023-01-02T00:58:37.775Z,97634.94
2023-01-02T01:01:06.146Z,97627.41
2023-01-02T01:03:33.105Z,97632.97
2023-01-02T01:05:59.924Z,97620.66
2023-01-02T01:08:26.577Z,97627.38
2023-01-02T01:10:53.260Z,97627.00
2023-01-02T01:13:20.070Z,97621.44
2023-01-02T01:15:47.183Z,97622.59
2023-01-02T01:18:15.685Z,97642.38
2023-01-02T01:20:42.496Z,97626.56
2023-01-02T01:23:09.192Z,97627.06
2023-01-02T01:25:37.299Z,97626.88
2023-01-02T01:28:04.223Z,97627.25
2023-01-02T01:30:31.089Z,97619.03
2023-01-02T01:32:58.144Z,97624.94
2023-01-02T01:35:26.210Z,97619.22
2023-01-02T01:37:52.938Z,97627.06
2023-01-02T01:40:19.609Z,97626.88
2023-01-02T01:42:50.088Z,97623.25
2023-01-02T01:45:17.524Z,97627.00
2023-01-02T01:47:47.549Z,97632.63
2023-01-02T01:50:19.043Z,97626.56
2023-01-02T01:52:52.118Z,97635.63
2023-01-02T01:55:22.396Z,97642.38
2023-01-02T01:57:54.396Z,97631.50
2023-01-02T02:00:21.529Z,97635.38
2023-01-02T02:02:53.114Z,97627.97
2023-01-02T02:05:23.798Z,97636.44
2023-01-02T02:08:13.315Z,97637.06
2023-01-02T02:10:41.090Z,97629.13
2023-01-02T02:13:07.731Z,97630.38
2023-01-02T02:15:45.872Z,97621.28
2023-01-02T02:18:27.726Z,97629.59
2023-01-02T02:21:01.065Z,97622.09
2023-01-02T02:24:01.075Z,97637.75
2023-01-02T02:26:53.565Z,97612.00
2023-01-02T02:29:49.025Z,97619.88
2023-01-02T02:32:23.825Z,97611.72
2023-01-02T02:34:59.619Z,97612.84
2023-01-02T02:37:38.002Z,97630.56
2023-01-02T02:40:15.112Z,97625.78
2023-01-02T02:42:52.358Z,97626.78
2023-01-02T02:45:29.567Z,97625.31
2023-01-02T02:48:01.788Z,97624.81
2023-01-02T02:50:35.251Z,97625.97
2023-01-02T02:53:09.139Z,97613.25
2023-01-02T02:55:41.816Z,97617.41
2023-01-02T02:58:09.008Z,97614.38
2023-01-02T03:00:37.086Z,97609.69
2023-01-02T03:03:15.129Z,97599.00
2023-01-02T03:05:46.592Z,97599.06
2023-01-02T03:08:21.311Z,97596.59
2023-01-02T03:10:55.765Z,97590.88
2023-01-02T03:13:40.563Z,97596.47
2023-01-02T03:16:13.128Z,97592.22
2023-01-02T03:18:50.058Z,97593.59
2023-01-02T03:21:21.879Z,97591.47
2023-01-02T03:23:51.169Z,97601.22
2023-01-02T03:26:23.700Z,97601.22
2023-01-02T03:28:58.352Z,97602.34
2023-01-02T03:31:30.618Z,97599.81
2023-01-02T03:34:15.298Z,97594.19
2023-01-02T03:36:44.274Z,97575.50
2023-01-02T03:39:15.345Z,97587.09
2023-01-02T03:41:45.810Z,97584.00
2023-01-02T03:44:13.154Z,97590.22
2023-01-02T03:46:48.115Z,97593.59
2023-01-02T03:49:19.032Z,97581.66
2023-01-02T03:51:45.921Z,97601.97
2023-01-02T03:54:15.065Z,62402.38
2023-01-02T03:56:54.876Z,62402.38
2023-01-02T03:59:38.928Z,62402.38
2023-01-02T04:02:14.038Z,62402.38
2023-01-02T04:04:50.886Z,62402.38
2023-01-02T04:07:23.710Z,62402.38
2023-01-02T04:09:51.279Z,62402.38
2023-01-02T04:12:20.679Z,62402.38
2023-01-02T04:14:51.277Z,62402.38
2023-01-02T04:17:22.863Z,62402.38
2023-01-02T04:19:52.998Z,62402.38
2023-01-02T04:22:24.756Z,62402.38
2023-01-02T04:24:55.498Z,62402.38
2023-01-02T04:27:27.055Z,62402.38
2023-01-02T04:29:54.599Z,97601.97
2023-01-02T04:32:28.757Z,97636.31
2023-01-02T04:34:56.638Z,97633.41
2023-01-02T04:37:28.487Z,97624.09
2023-01-02T04:39:58.647Z,97632.34
2023-01-02T04:42:25.878Z,97626.81
2023-01-02T04:44:52.654Z,62402.38
2023-01-02T04:47:21.913Z,62402.38
2023-01-02T04:49:50.030Z,97643.41
2023-01-02T04:52:16.708Z,97646.94
2023-01-02T04:54:43.359Z,97652.16
2023-01-02T04:57:11.969Z,97646.94
2023-01-02T04:59:38.673Z,97649.53
2023-01-02T05:02:05.558Z,97662.19
2023-01-02T05:04:32.267Z,97659.78
2023-01-02T05:07:00.376Z,97662.91
2023-01-02T05:09:27.106Z,97665.75
2023-01-02T05:11:53.817Z,97667.75
2023-01-02T05:14:20.606Z,97667.22
2023-01-02T05:16:47.256Z,97667.53
2023-01-02T05:19:14.101Z,97654.38
2023-01-02T05:21:59.116Z,97669.16
2023-01-02T05:24:27.315Z,97670.13
2023-01-02T05:26:54.684Z,97670.25
2023-01-02T05:29:21.499Z,97663.41
2023-01-02T05:31:48.142Z,97673.94
2023-01-02T05:34:16.013Z,97679.81
2023-01-02T05:36:42.953Z,97678.28
2023-01-02T05:39:10.079Z,97674.75
2023-01-02T05:41:39.424Z,97683.72
2023-01-02T05:44:08.699Z,97687.31
2023-01-02T05:46:36.703Z,97684.31
2023-01-02T05:49:04.634Z,97685.34
2023-01-02T05:51:31.400Z,97695.66
2023-01-02T05:53:58.253Z,97686.31
2023-01-02T05:56:27.199Z,97695.75
2023-01-02T05:58:55.896Z,97689.63
2023-01-02T06:01:24.129Z,97689.94
2023-01-02T06:03:52.417Z,97689.25
2023-01-02T06:06:21.472Z,97685.03
2023-01-02T06:08:48.255Z,97688.25
2023-01-02T06:11:15.049Z,97683.00
2023-01-02T06:13:42.038Z,97682.41
2023-01-02T06:16:10.719Z,97675.97
2023-01-02T06:18:38.995Z,97678.06
2023-01-02T06:21:07.649Z,97676.66
2023-01-02T06:23:34.750Z,97681.31
2023-01-02T06:26:03.269Z,97698.88
2023-01-02T06:28:30.045Z,97685.22
2023-01-02T06:30:59.884Z,97684.22
2023-01-02T06:33:28.635Z,97688.63
2023-01-02T06:35:59.289Z,97693.06
2023-01-02T06:38:26.001Z,97691.03
2023-01-02T06:40:53.703Z,97693.66
2023-01-02T06:43:20.553Z,97689.63
2023-01-02T06:45:47.275Z,97689.44
2023-01-02T06:48:14.116Z,97687.94
2023-01-02T06:50:42.232Z,97695.78
2023-01-02T06:53:08.969Z,97690.66
2023-01-02T06:55:35.801Z,97678.56
2023-01-02T06:58:08.754Z,97684.19
2023-01-02T07:00:37.995Z,97678.38
2023-01-02T07:03:04.738Z,97682.41
2023-01-02T07:05:31.534Z,97679.19
2023-01-02T07:07:59.563Z,97692.47
2023-01-02T07:10:26.284Z,97683.59
2023-01-02T07:12:53.001Z,97684.41
2023-01-02T07:15:19.760Z,97670.84
2023-01-02T07:17:46.761Z,97677.88
2023-01-02T07:20:13.569Z,97671.66
2023-01-02T07:22:40.327Z,97681.22
2023-01-02T07:25:09.001Z,97689.81
2023-01-02T07:27:36.057Z,97687.53
2023-01-02T07:30:02.951Z,97695.25
2023-01-02T07:32:29.666Z,97696.97
2023-01-02T07:34:56.406Z,97682.81
2023-01-02T07:37:23.188Z,97670.03
2023-01-02T07:39:49.845Z,97668.75
2023-01-02T07:42:17.839Z,97667.94
2023-01-02T07:44:44.580Z,97676.19
2023-01-02T07:47:11.280Z,97681.81
2023-01-02T07:49:38.131Z,97685.84
2023-01-02T07:52:08.561Z,97685.22
2023-01-02T07:54:35.284Z,97692.34
2023-01-02T07:57:01.949Z,97699.97
2023-01-02T07:59:30.204Z,97700.50
2023-01-02T08:01:56.944Z,97700.38
2023-01-02T08:04:23.775Z,97691.25
2023-01-02T08:06:50.484Z,97713.75
2023-01-02T08:09:17.201Z,97711.03
2023-01-02T08:11:43.850Z,97722.19
2023-01-02T08:14:11.986Z,97706.81
2023-01-02T08:16:40.048Z,97711.84
2023-01-02T08:19:07.062Z,97711.94
2023-01-02T08:21:33.828Z,97712.75
2023-01-02T08:24:00.678Z,97699.69
2023-01-02T08:26:27.373Z,97711.25
2023-01-02T08:28:54.147Z,97723.19
2023-01-02T08:31:21.967Z,97727.22
2023-01-02T08:33:50.302Z,97737.66
2023-01-02T08:36:17.084Z,97746.50
2023-01-02T08:38:43.853Z,97750.53
2023-01-02T08:41:10.646Z,97749.72
2023-01-02T08:43:37.828Z,97749.34
2023-01-02T08:46:05.651Z,97776.47
2023-01-02T08:48:32.674Z,97767.28
2023-01-02T08:51:00.944Z,97759.78
2023-01-02T08:53:27.878Z,97768.31
2023-01-02T08:55:54.664Z,97754.03
2023-01-02T08:58:21.503Z,97758.94
2023-01-02T09:00:48.168Z,97756.53
2023-01-02T09:03:14.899Z,97765.78
2023-01-02T09:05:41.820Z,97770.72
2023-01-02T09:08:11.674Z,97776.22
2023-01-02T09:10:38.431Z,97782.47
2023-01-02T09:13:05.417Z,97800.16
2023-01-02T09:15:32.206Z,97785.47
2023-01-02T09:17:59.515Z,97796.03
2023-01-02T09:20:26.212Z,97789.28
2023-01-02T09:22:52.922Z,97791.38
2023-01-02T09:25:24.345Z,97794.72
2023-01-02T09:27:51.535Z,97803.66
2023-01-02T09:30:18.266Z,97807.75
2023-01-02T09:32:45.095Z,97824.56
2023-01-02T09:35:12.055Z,97811.78
2023-01-02T09:37:38.811Z,97821.84
2023-01-02T09:40:06.930Z,97830.47
2023-01-02T09:42:35.225Z,97838.69
2023-01-02T09:45:08.604Z,97823.53
2023-01-02T09:47:39.352Z,97823.41
2023-01-02T09:50:11.339Z,97826.41
2023-01-02T09:52:41.396Z,97826.69
2023-01-02T09:55:15.160Z,97831.69
2023-01-02T09:57:51.903Z,97826.09
2023-01-02T10:00:20.767Z,97811.31
2023-01-02T10:03:00.410Z,97827.72
2023-01-02T10:05:53.573Z,97851.16
2023-01-02T10:08:32.517Z,97850.88
2023-01-02T10:11:11.475Z,97845.28
2023-01-02T10:14:17.406Z,97848.50
2023-01-02T10:16:36.877Z,62402.38
2023-01-02T10:19:12.413Z,62402.38
2023-01-02T10:21:40.753Z,62402.38
2023-01-02T10:24:14.669Z,97851.06
2023-01-02T10:26:44.838Z,97859.25
2023-01-02T10:29:19.279Z,97858.72
2023-01-02T10:31:51.810Z,97858.19
2023-01-02T10:34:20.418Z,97862.53
2023-01-02T10:36:48.550Z,97863.03
2023-01-02T10:39:17.667Z,97859.06
2023-01-02T10:41:50.280Z,97860.97
2023-01-02T10:44:25.976Z,97853.88
2023-01-02T10:46:53.613Z,97861.50
2023-01-02T10:49:21.890Z,97848.91
2023-01-02T10:51:53.390Z,97854.34
2023-01-02T10:54:20.106Z,97850.31
2023-01-02T10:56:50.077Z,97857.63
2023-01-02T10:59:22.571Z,97855.09
2023-01-02T11:01:52.633Z,97859.97
2023-01-02T11:04:22.654Z,97858.88
2023-01-02T11:06:53.201Z,97852.97
2023-01-02T11:09:22.865Z,97848.25
2023-01-02T11:11:51.493Z,97867.75
2023-01-02T11:14:23.546Z,97851.97
2023-01-02T11:16:50.682Z,97860.41
2023-01-02T11:19:24.040Z,97857.97
2023-01-02T11:21:54.614Z,97865.59
2023-01-02T11:24:25.841Z,97880.28
2023-01-02T11:26:54.235Z,97870.53
2023-01-02T11:29:28.896Z,97871.94
2023-01-02T11:31:59.527Z,97857.09
2023-01-02T11:34:33.311Z,97847.38
2023-01-02T11:37:06.334Z,97853.06
2023-01-02T11:39:34.760Z,97848.47
2023-01-02T11:42:33.041Z,97841.78
2023-01-02T11:45:08.182Z,97847.75
2023-01-02T11:47:40.092Z,97848.97
2023-01-02T11:50:07.338Z,97858.00
2023-01-02T11:52:44.227Z,97855.06
2023-01-02T11:55:24.357Z,97856.94
2023-01-02T11:57:56.525Z,62402.38
2023-01-02T12:00:31.659Z,62402.38
2023-01-02T12:03:05.545Z,62402.38
2023-01-02T12:05:37.904Z,97856.94
2023-01-02T12:08:16.745Z,97865.06
2023-01-02T12:10:55.192Z,97866.44
2023-01-02T12:13:37.401Z,97865.06
2023-01-02T12:16:16.728Z,97874.53
2023-01-02T12:19:09.165Z,97878.56
2023-01-02T12:21:46.705Z,97877.47
2023-01-02T12:24:32.512Z,97888.06
2023-01-02T12:27:06.993Z,97886.16
2023-01-02T12:29:46.378Z,97889.38
2023-01-02T12:32:58.316Z,97895.59
2023-01-02T12:35:46.150Z,97889.69
2023-01-02T12:38:22.990Z,97896.41
2023-01-02T12:41:02.104Z,97897.50
2023-01-02T12:43:40.350Z,97905.69
2023-01-02T12:46:17.340Z,97903.03
2023-01-02T12:49:00.339Z,97897.16
2023-01-02T12:51:33.491Z,97899.31
2023-01-02T12:54:19.997Z,97897.72
2023-01-02T12:56:56.959Z,97901.84
2023-01-02T12:59:50.584Z,97899.16
2023-01-02T13:02:31.481Z,97906.44
2023-01-02T13:05:04.946Z,97906.72
2023-01-02T13:07:37.531Z,97912.91
2023-01-02T13:10:06.760Z,97908.59
2023-01-02T13:12:35.954Z,97915.13
2023-01-02T13:15:09.615Z,97924.81
2023-01-02T13:17:52.109Z,97911.56
2023-01-02T13:20:31.024Z,97914.00
2023-01-02T13:23:07.016Z,97902.69
2023-01-02T13:25:37.354Z,97913.81
2023-01-02T13:28:07.915Z,97917.59
2023-01-02T13:30:44.176Z,97917.78
2023-01-02T13:33:25.165Z,97921.53
2023-01-02T13:35:53.789Z,97923.81
2023-01-02T13:38:24.031Z,97925.69
2023-01-02T13:40:56.049Z,97924.16
2023-01-02T13:43:27.473Z,97929.34
2023-01-02T13:45:55.495Z,97925.88
2023-01-02T13:48:29.952Z,62402.38
2023-01-02T13:51:03.474Z,97923.25
2023-01-02T13:53:36.533Z,97930.00
2023-01-02T13:56:09.552Z,97934.91
2023-01-02T13:58:48.477Z,97927.88
2023-01-02T14:01:54.606Z,97934.63
2023-01-02T14:04:39.355Z,97941.38
2023-01-02T14:07:47.732Z,97938.69
2023-01-02T14:10:41.138Z,97944.91
2023-01-02T14:13:32.116Z,97954.09
2023-01-02T14:16:40.357Z,97959.50
2023-01-02T14:19:26.698Z,97977.06
2023-01-02T14:22:03.545Z,97977.91
2023-01-02T14:24:34.873Z,97981.44
2023-01-02T14:27:04.118Z,62402.38
2023-01-02T14:29:32.528Z,62402.38
2023-01-02T14:32:03.724Z,62402.38
2023-01-02T14:34:30.958Z,62402.38
2023-01-02T14:37:00.386Z,97969.34
2023-01-02T14:39:30.474Z,97990.41
2023-01-02T14:42:53.311Z,97981.50
2023-01-02T14:45:23.741Z,97993.47
2023-01-02T14:47:54.599Z,97995.41
2023-01-02T14:50:25.125Z,97999.56
2023-01-02T14:52:59.935Z,98012.78
2023-01-02T14:55:30.969Z,98011.47
2023-01-02T14:58:01.532Z,98018.22
2023-01-02T15:00:32.038Z,98011.19
2023-01-02T15:03:12.316Z,98014.44
2023-01-02T15:05:48.027Z,98012.00
2023-01-02T15:08:19.099Z,98016.88
2023-01-02T15:10:55.294Z,98009.03
2023-01-02T15:13:26.468Z,98019.31
2023-01-02T15:15:56.932Z,98019.84
2023-01-02T15:18:29.875Z,98018.22
2023-01-02T15:21:04.640Z,98018.75
2023-01-02T15:23:31.661Z,98019.31
2023-01-02T15:26:31.298Z,98034.38
2023-01-02T15:28:55.438Z,98036.56
2023-01-02T15:31:22.239Z,98049.50
2023-01-02T15:33:53.114Z,62402.38
2023-01-02T15:36:32.821Z,62402.38
2023-01-02T15:39:12.020Z,62402.38
2023-01-02T15:41:45.439Z,62402.38
2023-01-02T15:44:36.990Z,62402.38
2023-01-02T15:47:06.367Z,62402.38
2023-01-02T15:49:33.797Z,62402.38
2023-01-02T15:52:00.847Z,62402.38
2023-01-02T15:54:28.798Z,62402.38
2023-01-02T15:57:05.359Z,62402.38
2023-01-02T15:59:38.765Z,62402.38
2023-01-02T16:02:05.870Z,62402.38
2023-01-02T16:04:33.961Z,62402.38
2023-01-02T16:07:13.897Z,62402.38
2023-01-02T16:09:40.919Z,62402.38
2023-01-02T16:12:20.465Z,62402.38
2023-01-02T16:14:53.462Z,62402.38
2023-01-02T16:17:24.759Z,62402.38
2023-01-02T16:19:58.681Z,62402.38
2023-01-02T16:22:28.822Z,62402.38
2023-01-02T16:25:00.542Z,62402.38
2023-01-02T16:27:29.761Z,62402.38
2023-01-02T16:29:58.436Z,62402.38
2023-01-02T16:32:29.352Z,62402.38
2023-01-02T16:35:01.906Z,62402.38
2023-01-02T16:37:33.723Z,98087.34
2023-01-02T16:41:00.137Z,98093.00
2023-01-02T16:43:30.882Z,98093.25
2023-01-02T16:46:00.049Z,98082.22
2023-01-02T16:48:30.026Z,98080.84
2023-01-02T16:50:58.985Z,98094.16
2023-01-02T16:53:28.821Z,98106.09
2023-01-02T16:55:55.887Z,98125.16
2023-01-02T16:58:25.415Z,98133.75
2023-01-02T17:00:53.514Z,62402.38
2023-01-02T17:03:23.991Z,62402.38
2023-01-02T17:06:02.284Z,98168.47
2023-01-02T17:08:30.210Z,98174.13
2023-01-02T17:10:58.719Z,62402.38
2023-01-02T17:13:25.855Z,62402.38
2023-01-02T17:15:52.558Z,62402.38
2023-01-02T17:18:19.317Z,62402.38
2023-01-02T17:20:47.716Z,62402.38
2023-01-02T17:23:14.949Z,62402.38
2023-01-02T17:25:46.190Z,62402.38
2023-01-02T17:28:13.249Z,62402.38
2023-01-02T17:30:41.259Z,62402.38
2023-01-02T17:33:07.975Z,62402.38
2023-01-02T17:35:35.339Z,62402.38
2023-01-02T17:38:04.175Z,62402.38
2023-01-02T17:40:30.986Z,62402.38
2023-01-02T17:42:57.761Z,62402.38
2023-01-02T17:45:24.740Z,62402.38
2023-01-02T17:48:05.437Z,62402.38
2023-01-02T17:50:34.613Z,62402.38
2023-01-02T17:53:01.658Z,62402.38
2023-01-02T17:55:29.750Z,62402.38
2023-01-02T17:57:56.548Z,62402.38
2023-01-02T18:00:23.608Z,98253.38
2023-01-02T18:02:51.831Z,98254.72
2023-01-02T18:05:18.739Z,98258.97
2023-01-02T18:07:45.528Z,98277.03
2023-01-02T18:10:15.997Z,98277.53
2023-01-02T18:12:49.039Z,98273.47
2023-01-02T18:15:17.413Z,98286.19
2023-01-02T18:17:44.177Z,98281.06
2023-01-02T18:20:13.074Z,98289.66
2023-01-02T18:22:46.017Z,98293.69
2023-01-02T18:25:19.188Z,98279.41
2023-01-02T18:27:48.173Z,98293.69
2023-01-02T18:30:19.289Z,98296.66
2023-01-02T18:32:46.768Z,98298.78
2023-01-02T18:35:54.936Z,98312.50
2023-01-02T18:38:15.670Z,98318.06
2023-01-02T18:40:42.433Z,98301.69
2023-01-02T18:43:20.393Z,98318.91
2023-01-02T18:45:50.638Z,98327.25
2023-01-02T18:48:19.227Z,98333.69
2023-01-02T18:50:56.385Z,98332.06
2023-01-02T18:53:26.583Z,98333.44
2023-01-02T18:55:59.885Z,98345.56
2023-01-02T18:58:41.431Z,98352.25
2023-01-02T19:01:39.540Z,98349.59
2023-01-02T19:04:27.397Z,98359.56
2023-01-02T19:06:57.133Z,98359.28
2023-01-02T19:09:29.681Z,98361.41
2023-01-02T19:12:17.726Z,98368.88
2023-01-02T19:14:45.897Z,98366.19
2023-01-02T19:17:21.562Z,98376.38
2023-01-02T19:19:48.655Z,98382.91
2023-01-02T19:22:17.614Z,98396.13
2023-01-02T19:24:44.471Z,98407.91
2023-01-02T19:27:29.099Z,98404.31
2023-01-02T19:29:57.460Z,98410.22
2023-01-02T19:32:27.932Z,98411.22
2023-01-02T19:34:56.798Z,98415.28
2023-01-02T19:37:34.026Z,62402.38
2023-01-02T19:40:14.634Z,62402.38
2023-01-02T19:42:45.359Z,62402.38
2023-01-02T19:45:17.062Z,98436.72
2023-01-02T19:47:44.137Z,98449.34
2023-01-02T19:50:13.179Z,62402.38
2023-01-02T19:52:40.049Z,98460.47
2023-01-02T19:55:08.615Z,98448.59
2023-01-02T19:57:35.456Z,98447.53
2023-01-02T20:00:03.774Z,98440.00
2023-01-02T20:02:32.019Z,62402.38
2023-01-02T20:04:58.928Z,62402.38
2023-01-02T20:07:26.700Z,98439.50
2023-01-02T20:09:53.989Z,98443.75
2023-01-02T20:12:30.036Z,98449.97
2023-01-02T20:14:56.783Z,98460.00
2023-01-02T20:17:23.457Z,98452.38
2023-01-02T20:19:51.699Z,98463.38
2023-01-02T20:22:18.410Z,98454.91
2023-01-02T20:24:45.131Z,98463.31
2023-01-02T20:27:14.073Z,98466.25
2023-01-02T20:29:41.180Z,62402.38
2023-01-02T20:32:08.574Z,62402.38
2023-01-02T20:34:35.336Z,62402.38
2023-01-02T20:37:03.514Z,62402.38
2023-01-02T20:39:30.237Z,62402.38
2023-01-02T20:41:56.930Z,62402.38
2023-01-02T20:44:24.405Z,62402.38
2023-01-02T20:46:51.165Z,62402.38
2023-01-02T20:49:20.907Z,62402.38
2023-01-02T20:51:47.738Z,62402.38
2023-01-02T20:54:15.960Z,62402.38
2023-01-02T20:56:42.694Z,62402.38
2023-01-02T20:59:09.409Z,62402.38
2023-01-02T21:01:36.673Z,62402.38
2023-01-02T21:04:03.510Z,62402.38
2023-01-02T21:06:30.203Z,62402.38
2023-01-02T21:08:56.921Z,62402.38
2023-01-02T21:11:24.935Z,62402.38
2023-01-02T21:13:51.743Z,62402.38
2023-01-02T21:16:18.590Z,62402.38
2023-01-02T21:18:45.940Z,62402.38
2023-01-02T21:21:17.529Z,62402.38
2023-01-02T21:23:44.638Z,62402.38
2023-01-02T21:26:14.332Z,62402.38
2023-01-02T21:28:47.512Z,62402.38
2023-01-02T21:31:15.021Z,62402.38
2023-01-02T21:33:41.767Z,62402.38
2023-01-02T21:36:09.335Z,62402.38
2023-01-02T21:38:36.370Z,62402.38
2023-01-02T21:41:21.590Z,62402.38
2023-01-02T21:43:49.941Z,62402.38
2023-01-02T21:46:16.724Z,62402.38
2023-01-02T21:48:43.513Z,62402.38
2023-01-02T21:51:10.349Z,62402.38
2023-01-02T21:53:37.030Z,62402.38
2023-01-02T21:56:03.858Z,62402.38
2023-01-02T21:58:30.731Z,62402.38
2023-01-02T22:00:58.944Z,62402.38
2023-01-02T22:03:25.852Z,62402.38
2023-01-02T22:05:53.852Z,62402.38
2023-01-02T22:08:20.655Z,62402.38
2023-01-02T22:10:48.957Z,62402.38
2023-01-02T22:13:15.796Z,62402.38
2023-01-02T22:15:42.698Z,62402.38
2023-01-02T22:18:10.971Z,62402.38
2023-01-02T22:20:37.683Z,62402.38
2023-01-02T22:23:04.444Z,62402.38
2023-01-02T22:25:31.817Z,62402.38
2023-01-02T22:27:59.249Z,62402.38
2023-01-02T22:30:33.625Z,62402.38
2023-01-02T22:33:01.732Z,62402.38
2023-01-02T22:35:33.035Z,62402.38
2023-01-02T22:37:59.833Z,62402.38
2023-01-02T22:40:27.631Z,62402.38
2023-01-02T22:43:04.004Z,62402.38
2023-01-02T22:45:36.563Z,62402.38
2023-01-02T22:48:07.468Z,62402.38
2023-01-02T22:50:41.620Z,62402.38
2023-01-02T22:53:16.878Z,62402.38
2023-01-02T22:55:43.639Z,62402.38
2023-01-02T22:58:10.353Z,62402.38
2023-01-02T23:00:37.010Z,62402.38
2023-01-02T23:03:03.877Z,62402.38
2023-01-02T23:05:30.556Z,62402.38
2023-01-02T23:07:58.775Z,62402.38
2023-01-02T23:10:25.512Z,62402.38
2023-01-02T23:12:52.162Z,62402.38
2023-01-02T23:15:18.925Z,62402.38
2023-01-02T23:18:04.115Z,62402.38
2023-01-02T23:20:30.812Z,62402.38
2023-01-02T23:22:58.916Z,62402.38
2023-01-02T23:25:25.788Z,62402.38
2023-01-02T23:27:52.586Z,62402.38
2023-01-02T23:30:19.448Z,62402.38
2023-01-02T23:32:46.186Z,62402.38
2023-01-02T23:35:12.966Z,62402.38
2023-01-02T23:37:39.603Z,62402.38
2023-01-02T23:40:09.458Z,62402.38
2023-01-02T23:42:36.190Z,62402.38
2023-01-02T23:45:03.078Z,62402.38
2023-01-02T23:47:29.753Z,62402.38
2023-01-02T23:49:56.425Z,62402.38
2023-01-02T23:52:23.135Z,62402.38
2023-01-02T23:54:49.836Z,62402.38
2023-01-02T23:57:17.957Z,62402.38
2023-01-02T23:59:44.929Z,62402.38
